Time;durP1;ratioP1;P1;durP2;ratioP2;P2;SDS_P1;SDS_P2;PMS_P1;PMS_P2;Temp;Humidity;BMP_temperature;BMP_pressure;BME280_temperature;BME280_humidity;BME280_pressure;Samples;Min_cycle;Max_cycle;Signal;HPM_P1;HPM_P2
2024/02/03 00:01:04;;;;;;;5.60;3.77;;;7.00;99.90;;;;;;5053276;28;20225;-62
2024/02/03 00:03:31;;;;;;;6.93;3.87;;;7.10;99.90;;;;;;5053392;28;20217;-61
2024/02/03 00:05:57;;;;;;;7.60;3.67;;;7.10;99.90;;;;;;5053159;28;20217;-61
2024/02/03 00:08:24;;;;;;;5.00;3.73;;;7.00;99.90;;;;;;5052970;28;20252;-61
2024/02/03 00:10:50;;;;;;;4.60;3.70;;;7.00;99.90;;;;;;5053010;28;20263;-61
2024/02/03 00:13:17;;;;;;;5.00;3.10;;;6.90;99.90;;;;;;5052750;28;20770;-61
2024/02/03 00:15:46;;;;;;;6.23;4.10;;;6.80;99.90;;;;;;5052859;28;20262;-61
2024/02/03 00:18:13;;;;;;;7.23;3.87;;;6.70;99.90;;;;;;5052276;28;20217;-60
2024/02/03 00:20:39;;;;;;;4.97;3.30;;;6.60;99.90;;;;;;5052648;28;20630;-60
2024/02/03 00:23:06;;;;;;;3.60;2.70;;;6.40;99.90;;;;;;5052650;28;20233;-61
2024/02/03 00:25:33;;;;;;;3.90;2.70;;;6.20;99.90;;;;;;5052750;28;20214;-61
2024/02/03 00:28:00;;;;;;;3.53;2.53;;;6.10;99.90;;;;;;5052119;28;20205;-60
2024/02/03 00:30:27;;;;;;;3.77;2.50;;;5.90;99.90;;;;;;5051808;28;20206;-60
2024/02/03 00:32:55;;;;;;;3.77;2.37;;;5.90;99.90;;;;;;5051705;28;20641;-60
2024/02/03 00:35:21;;;;;;;3.80;2.43;;;5.80;99.90;;;;;;5051968;28;20721;-60
2024/02/03 00:37:47;;;;;;;4.30;2.33;;;5.70;99.90;;;;;;5052464;28;20348;-60
2024/02/03 00:40:14;;;;;;;2.57;2.10;;;5.70;99.90;;;;;;5052499;28;20206;-60
2024/02/03 00:42:42;;;;;;;3.07;2.30;;;5.70;99.90;;;;;;5052518;28;20723;-60
2024/02/03 00:45:10;;;;;;;3.13;2.17;;;5.70;99.90;;;;;;5052279;28;20281;-61
2024/02/03 00:47:36;;;;;;;4.90;2.97;;;5.80;99.90;;;;;;5052446;28;20205;-60
2024/02/03 00:50:05;;;;;;;2.90;2.50;;;5.90;99.90;;;;;;5052593;28;20209;-60
2024/02/03 00:52:31;;;;;;;2.63;2.00;;;5.90;99.90;;;;;;5051726;28;20201;-60
2024/02/03 00:54:58;;;;;;;3.27;2.60;;;5.80;99.90;;;;;;5052271;28;20621;-60
2024/02/03 00:57:25;;;;;;;2.87;2.00;;;5.80;99.90;;;;;;5051793;28;20205;-60
2024/02/03 00:59:51;;;;;;;5.70;2.00;;;5.70;99.90;;;;;;5051946;28;20213;-60
2024/02/03 01:02:18;;;;;;;2.77;2.00;;;5.50;99.90;;;;;;5052264;28;20221;-61
2024/02/03 01:04:45;;;;;;;4.30;2.20;;;5.40;99.90;;;;;;5052117;28;20235;-61
2024/02/03 01:07:13;;;;;;;3.77;1.80;;;5.40;99.90;;;;;;5051803;28;20259;-61
2024/02/03 01:09:40;;;;;;;2.10;1.83;;;5.40;99.90;;;;;;5052240;28;20210;-61
2024/02/03 01:12:07;;;;;;;2.50;1.80;;;5.50;99.90;;;;;;5052165;28;20217;-61
2024/02/03 01:14:34;;;;;;;2.17;1.70;;;5.50;99.90;;;;;;5052122;28;20220;-61
2024/02/03 01:17:02;;;;;;;2.13;1.93;;;5.40;99.90;;;;;;5051668;28;20202;-61
2024/02/03 01:19:28;;;;;;;3.90;2.00;;;5.40;99.90;;;;;;5036190;28;20726;-61
2024/02/03 01:21:55;;;;;;;4.10;2.33;;;5.30;99.90;;;;;;5051878;28;20235;-60
2024/02/03 01:24:23;;;;;;;4.03;2.10;;;5.10;99.90;;;;;;5051804;28;20244;-60
2024/02/03 01:26:50;;;;;;;2.70;2.00;;;5.00;99.90;;;;;;5051717;28;20206;-60
2024/02/03 01:29:17;;;;;;;3.60;1.87;;;4.90;99.90;;;;;;5051603;28;20205;-60
2024/02/03 01:31:44;;;;;;;2.60;2.00;;;4.80;99.90;;;;;;5051775;28;20210;-60
2024/02/03 01:34:10;;;;;;;4.03;2.07;;;4.80;99.90;;;;;;5051484;28;20611;-60
2024/02/03 01:36:37;;;;;;;2.33;1.63;;;4.80;99.90;;;;;;5051722;28;20228;-59
2024/02/03 01:39:06;;;;;;;2.90;1.80;;;4.80;99.90;;;;;;5051373;28;20292;-59
2024/02/03 01:41:34;;;;;;;2.03;1.73;;;4.90;99.90;;;;;;5051381;28;20226;-60
2024/02/03 01:44:00;;;;;;;2.67;1.70;;;4.80;99.90;;;;;;5051209;28;20755;-60
2024/02/03 01:46:27;;;;;;;2.40;2.00;;;4.80;99.90;;;;;;5035223;28;20224;-60
2024/02/03 01:48:53;;;;;;;3.07;2.27;;;4.80;99.90;;;;;;5051593;28;20205;-60
2024/02/03 01:51:20;;;;;;;2.20;1.90;;;4.80;99.90;;;;;;5051531;28;20209;-60
2024/02/03 01:53:47;;;;;;;3.30;1.83;;;4.80;99.90;;;;;;5051224;28;20605;-59
2024/02/03 01:56:16;;;;;;;2.97;2.00;;;4.80;99.90;;;;;;5051236;28;20209;-60
2024/02/03 01:58:44;;;;;;;3.10;1.90;;;4.70;99.90;;;;;;5051410;28;20216;-60
2024/02/03 02:01:11;;;;;;;2.47;1.90;;;4.70;99.90;;;;;;5051350;28;20294;-60
2024/02/03 02:03:39;;;;;;;2.60;2.10;;;4.70;99.90;;;;;;5053793;28;20232;-60
2024/02/03 02:06:07;;;;;;;3.30;2.40;;;4.60;99.90;;;;;;5055562;28;20206;-59
2024/02/03 02:08:35;;;;;;;5.27;2.20;;;4.60;99.90;;;;;;5055208;28;20206;-60
2024/02/03 02:11:02;;;;;;;2.43;1.93;;;4.60;99.90;;;;;;5055209;28;20237;-60
2024/02/03 02:13:29;;;;;;;3.17;2.13;;;4.60;99.90;;;;;;5039176;28;20217;-60
2024/02/03 02:15:57;;;;;;;3.83;2.10;;;4.60;99.90;;;;;;5055461;28;20205;-60
2024/02/03 02:18:24;;;;;;;3.73;2.10;;;4.50;99.90;;;;;;5054802;28;20267;-60
2024/02/03 02:20:52;;;;;;;6.23;2.33;;;4.40;99.90;;;;;;5055064;28;20201;-61
2024/02/03 02:23:19;;;;;;;5.50;3.00;;;4.40;99.90;;;;;;5054920;28;20240;-61
2024/02/03 02:25:46;;;;;;;4.57;2.87;;;4.30;99.90;;;;;;5055173;28;20201;-59
2024/02/03 02:28:12;;;;;;;3.40;2.50;;;4.20;99.90;;;;;;5054863;28;20271;-60
2024/02/03 02:30:40;;;;;;;3.90;2.90;;;4.20;99.90;;;;;;5055007;28;20213;-60
2024/02/03 02:33:08;;;;;;;3.30;2.30;;;4.20;99.90;;;;;;5054846;28;20225;-61
2024/02/03 02:35:35;;;;;;;3.97;2.60;;;4.20;99.90;;;;;;5054790;28;20687;-61
2024/02/03 02:38:03;;;;;;;3.20;2.20;;;4.10;99.90;;;;;;5054890;28;20205;-62
2024/02/03 02:40:30;;;;;;;3.47;2.07;;;4.00;99.90;;;;;;5054936;28;20292;-59
2024/02/03 02:42:57;;;;;;;3.00;1.93;;;3.90;99.90;;;;;;5054659;28;20226;-60
2024/02/03 02:45:24;;;;;;;2.53;2.20;;;3.90;99.90;;;;;;5054577;28;20267;-60
2024/02/03 02:47:50;;;;;;;3.27;2.30;;;3.80;99.90;;;;;;5054461;28;20205;-60
2024/02/03 02:50:17;;;;;;;4.27;3.07;;;3.80;99.90;;;;;;5054396;28;20209;-60
2024/02/03 02:52:44;;;;;;;2.87;2.07;;;3.70;99.90;;;;;;5054741;28;20255;-60
2024/02/03 02:55:12;;;;;;;2.43;2.00;;;3.60;99.90;;;;;;5054352;28;20213;-60
2024/02/03 02:57:39;;;;;;;3.37;2.07;;;3.60;99.90;;;;;;5054348;28;20339;-60
2024/02/03 03:00:09;;;;;;;2.47;2.10;;;3.60;99.90;;;;;;5054099;28;20208;-60
2024/02/03 03:02:36;;;;;;;3.03;2.10;;;3.60;99.90;;;;;;5054229;28;20382;-60
2024/02/03 03:05:03;;;;;;;2.20;1.80;;;3.60;99.90;;;;;;5054169;28;20225;-60
2024/02/03 03:07:30;;;;;;;2.43;2.10;;;3.50;99.90;;;;;;5037803;28;20213;-60
2024/02/03 03:09:57;;;;;;;3.90;1.80;;;3.50;99.90;;;;;;5054142;28;20209;-59
2024/02/03 03:12:25;;;;;;;3.13;2.20;;;3.50;99.90;;;;;;5054106;28;20202;-60
2024/02/03 03:14:51;;;;;;;3.00;2.00;;;3.50;99.90;;;;;;5053190;28;20225;-60
2024/02/03 03:17:18;;;;;;;2.03;1.73;;;3.50;99.90;;;;;;5053641;28;20652;-60
2024/02/03 03:19:44;;;;;;;2.87;2.27;;;3.60;99.90;;;;;;5053901;28;20251;-59
2024/02/03 03:22:12;;;;;;;3.63;2.20;;;3.60;99.90;;;;;;5054002;28;20224;-60
2024/02/03 03:24:39;;;;;;;5.37;2.83;;;3.50;99.90;;;;;;5053990;28;20562;-60
2024/02/03 03:27:06;;;;;;;2.97;2.40;;;3.50;99.90;;;;;;5053603;28;20237;-60
2024/02/03 03:29:34;;;;;;;4.77;2.77;;;3.50;99.90;;;;;;5053814;28;20208;-60
2024/02/03 03:32:01;;;;;;;3.97;2.73;;;3.50;99.90;;;;;;5053587;28;20251;-62
2024/02/03 03:34:27;;;;;;;5.80;2.90;;;3.40;99.90;;;;;;5053692;28;20218;-60
2024/02/03 03:36:54;;;;;;;3.47;2.30;;;3.40;99.90;;;;;;5053747;28;20214;-60
2024/02/03 03:39:21;;;;;;;2.43;1.90;;;3.50;99.90;;;;;;5053353;28;20213;-60
2024/02/03 03:41:48;;;;;;;4.40;2.20;;;3.50;99.90;;;;;;5053574;28;20205;-60
2024/02/03 03:44:14;;;;;;;3.10;2.20;;;3.40;99.90;;;;;;5085554;22;20233;-62
2024/02/03 03:46:42;;;;;;;2.37;2.03;;;3.40;99.90;;;;;;5073844;28;20282;-64
2024/02/03 03:49:09;;;;;;;3.47;2.20;;;3.30;99.90;;;;;;5073025;28;20615;-63
2024/02/03 03:51:36;;;;;;;2.87;2.10;;;3.20;99.90;;;;;;5073278;28;20205;-62
2024/02/03 03:54:02;;;;;;;3.67;2.13;;;3.30;99.90;;;;;;5073175;28;20216;-63
2024/02/03 03:56:29;;;;;;;4.63;1.87;;;3.40;99.90;;;;;;5073193;28;20693;-62
2024/02/03 03:58:56;;;;;;;2.70;1.90;;;3.40;99.90;;;;;;5072897;28;20678;-63
2024/02/03 04:01:22;;;;;;;2.93;1.70;;;3.40;99.90;;;;;;5073037;28;20208;-63
2024/02/03 04:03:50;;;;;;;4.20;1.80;;;3.40;99.90;;;;;;5073152;28;20299;-63
2024/02/03 04:06:17;;;;;;;2.20;1.90;;;3.40;99.90;;;;;;5073141;28;20205;-63
2024/02/03 04:08:44;;;;;;;3.97;1.93;;;3.40;99.90;;;;;;5072837;28;20204;-63
2024/02/03 04:11:10;;;;;;;3.80;2.40;;;3.30;99.90;;;;;;5072812;28;20201;-63
2024/02/03 04:13:40;;;;;;;2.87;2.10;;;3.20;99.90;;;;;;5072761;28;20234;-63
2024/02/03 04:16:07;;;;;;;3.37;1.80;;;3.20;99.90;;;;;;5072901;28;20262;-63
2024/02/03 04:18:34;;;;;;;3.47;2.27;;;3.20;99.90;;;;;;5072804;28;20205;-63
2024/02/03 04:21:02;;;;;;;2.23;1.73;;;3.30;99.90;;;;;;5072853;28;20209;-63
2024/02/03 04:23:29;;;;;;;2.27;1.80;;;3.20;99.90;;;;;;5072290;28;20224;-63
2024/02/03 04:25:57;;;;;;;2.27;1.83;;;3.20;99.90;;;;;;5072600;28;20205;-63
2024/02/03 04:28:23;;;;;;;2.90;1.80;;;3.10;99.90;;;;;;5072212;28;20212;-63
2024/02/03 04:30:50;;;;;;;3.17;2.10;;;3.10;99.90;;;;;;5072762;28;20209;-63
2024/02/03 04:33:16;;;;;;;3.23;2.00;;;3.10;99.90;;;;;;5072401;28;20201;-63
2024/02/03 04:35:43;;;;;;;3.83;2.90;;;3.20;99.90;;;;;;5072635;28;20216;-63
2024/02/03 04:38:11;;;;;;;4.33;2.73;;;3.20;99.90;;;;;;5072036;28;20212;-63
2024/02/03 04:40:38;;;;;;;4.20;2.50;;;3.30;99.90;;;;;;5072407;28;20209;-63
2024/02/03 04:43:05;;;;;;;3.30;2.40;;;3.30;99.90;;;;;;5072358;28;20225;-63
2024/02/03 04:45:31;;;;;;;3.27;2.53;;;3.30;99.90;;;;;;5072137;28;20205;-63
2024/02/03 04:47:58;;;;;;;3.57;2.53;;;3.40;99.90;;;;;;5071946;28;20212;-63
2024/02/03 04:50:25;;;;;;;4.17;2.77;;;3.40;99.90;;;;;;5072123;28;20259;-63
2024/02/03 04:52:52;;;;;;;3.27;2.83;;;3.40;99.90;;;;;;5072511;28;20197;-63
2024/02/03 04:55:22;;;;;;;3.87;3.27;;;3.40;99.90;;;;;;5071806;28;20792;-63
2024/02/03 04:57:48;;;;;;;4.00;3.10;;;3.30;99.90;;;;;;5072023;28;20219;-63
2024/02/03 05:00:17;;;;;;;4.53;3.27;;;3.20;99.90;;;;;;5071861;28;20204;-63
2024/02/03 05:02:43;;;;;;;3.90;3.00;;;3.20;99.90;;;;;;5071906;28;20220;-63
2024/02/03 05:05:10;;;;;;;5.27;2.77;;;3.20;99.90;;;;;;5072124;28;20224;-63
2024/02/03 05:07:37;;;;;;;4.83;3.07;;;3.30;99.90;;;;;;5071579;28;20208;-62
2024/02/03 05:10:05;;;;;;;3.40;3.10;;;3.30;99.90;;;;;;5071822;28;20258;-63
2024/02/03 05:12:33;;;;;;;4.23;3.23;;;3.30;99.90;;;;;;5071764;28;20193;-63
2024/02/03 05:15:00;;;;;;;3.83;3.40;;;3.30;99.90;;;;;;5071904;28;20251;-63
2024/02/03 05:17:26;;;;;;;4.17;3.27;;;3.30;99.90;;;;;;5071630;28;20203;-63
2024/02/03 05:19:53;;;;;;;4.73;3.47;;;3.30;99.90;;;;;;5071825;28;20217;-63
2024/02/03 05:22:20;;;;;;;6.90;4.00;;;3.30;99.90;;;;;;5071289;28;20631;-63
2024/02/03 05:24:46;;;;;;;4.40;3.70;;;3.20;99.90;;;;;;5071582;28;20225;-63
2024/02/03 05:27:13;;;;;;;3.40;2.83;;;3.20;99.90;;;;;;5071206;28;20678;-63
2024/02/03 05:29:42;;;;;;;3.90;3.03;;;3.30;99.90;;;;;;5071538;28;20677;-63
2024/02/03 05:32:09;;;;;;;4.00;3.60;;;3.40;99.90;;;;;;5071498;28;20212;-63
2024/02/03 05:34:36;;;;;;;5.97;3.80;;;3.60;99.90;;;;;;5071497;28;20221;-63
2024/02/03 05:37:02;;;;;;;6.00;4.00;;;3.70;99.90;;;;;;5070943;28;20208;-63
2024/02/03 05:39:29;;;;;;;4.97;3.67;;;3.90;99.90;;;;;;5071255;28;20725;-63
2024/02/03 05:41:55;;;;;;;4.53;3.80;;;4.10;99.90;;;;;;5071553;28;20587;-63
2024/02/03 05:44:21;;;;;;;7.07;4.63;;;4.20;99.90;;;;;;5071239;28;20224;-63
2024/02/03 05:46:49;;;;;;;7.43;4.37;;;4.40;99.90;;;;;;5071557;28;20204;-62
2024/02/03 05:49:16;;;;;;;7.70;4.40;;;4.50;99.90;;;;;;5071108;28;20220;-63
2024/02/03 05:51:43;;;;;;;5.53;4.27;;;4.70;99.90;;;;;;5071335;28;20209;-62
2024/02/03 05:54:09;;;;;;;5.77;4.40;;;4.90;99.90;;;;;;5071368;28;20221;-62
2024/02/03 05:56:37;;;;;;;5.40;3.77;;;5.10;99.90;;;;;;5071529;28;20213;-63
2024/02/03 05:59:04;;;;;;;4.93;4.10;;;5.30;99.90;;;;;;5071039;28;20693;-63
2024/02/03 06:01:30;;;;;;;4.33;3.80;;;5.50;99.90;;;;;;5071261;28;20213;-62
2024/02/03 06:03:59;;;;;;;5.40;4.23;;;5.60;99.90;;;;;;5071065;28;20307;-63
2024/02/03 06:06:26;;;;;;;5.50;3.93;;;5.80;99.90;;;;;;5071314;28;20220;-63
2024/02/03 06:08:53;;;;;;;6.17;3.87;;;5.90;99.90;;;;;;5071498;28;20205;-62
2024/02/03 06:11:19;;;;;;;4.93;4.13;;;6.10;99.90;;;;;;5071360;28;20208;-63
2024/02/03 06:13:46;;;;;;;5.33;3.93;;;6.20;99.90;;;;;;5071278;28;20246;-63
2024/02/03 06:16:13;;;;;;;6.27;5.00;;;6.40;99.90;;;;;;5071005;28;20201;-63
2024/02/03 06:18:39;;;;;;;5.03;3.70;;;6.50;99.90;;;;;;5070862;28;20201;-63
2024/02/03 06:21:07;;;;;;;6.03;4.37;;;6.70;99.90;;;;;;5071026;28;20593;-63
2024/02/03 06:23:34;;;;;;;6.47;4.37;;;6.80;99.90;;;;;;5071020;28;20232;-63
2024/02/03 06:26:01;;;;;;;5.03;4.20;;;7.00;99.90;;;;;;5071221;28;20201;-62
2024/02/03 06:28:27;;;;;;;6.20;4.27;;;7.10;99.90;;;;;;5070696;28;20220;-62
2024/02/03 06:30:54;;;;;;;6.87;4.97;;;7.20;99.90;;;;;;5071088;28;20210;-63
2024/02/03 06:33:21;;;;;;;7.33;5.00;;;7.40;99.90;;;;;;5070711;28;20280;-62
2024/02/03 06:35:47;;;;;;;7.37;5.30;;;7.50;99.90;;;;;;5071074;28;20205;-62
2024/02/03 06:38:15;;;;;;;5.80;5.20;;;7.70;99.90;;;;;;5070943;28;20274;-62
2024/02/03 06:40:42;;;;;;;6.30;5.60;;;7.80;99.90;;;;;;5071427;28;20251;-62
2024/02/03 06:43:09;;;;;;;6.60;5.67;;;7.90;99.90;;;;;;5070802;28;20225;-62
2024/02/03 06:45:36;;;;;;;7.83;5.83;;;8.10;99.90;;;;;;5070859;28;20255;-63
2024/02/03 06:48:02;;;;;;;6.80;5.83;;;8.20;99.90;;;;;;5070889;28;20214;-62
2024/02/03 06:50:29;;;;;;;6.53;5.67;;;8.20;99.90;;;;;;5072785;28;20201;-63
2024/02/03 06:52:56;;;;;;;8.10;6.17;;;8.20;99.90;;;;;;5074987;28;20209;-62
2024/02/03 06:55:24;;;;;;;8.93;6.03;;;8.30;99.90;;;;;;5074742;28;20719;-62
2024/02/03 06:57:50;;;;;;;10.03;6.30;;;8.40;99.90;;;;;;5074680;28;20205;-62
2024/02/03 07:00:17;;;;;;;6.53;5.90;;;8.50;99.90;;;;;;5074447;28;20205;-62
2024/02/03 07:02:44;;;;;;;6.43;5.67;;;8.60;99.90;;;;;;5074883;28;20216;-62
2024/02/03 07:05:11;;;;;;;8.00;5.67;;;8.70;99.90;;;;;;5074434;28;20229;-62
2024/02/03 07:07:38;;;;;;;7.27;6.10;;;8.80;99.90;;;;;;5054451;28;20725;-62
2024/02/03 07:10:05;;;;;;;6.50;5.83;;;8.80;99.90;;;;;;5054906;28;20216;-61
2024/02/03 07:12:33;;;;;;;6.60;5.73;;;8.80;99.90;;;;;;5054603;28;20212;-62
2024/02/03 07:15:00;;;;;;;7.63;6.07;;;8.90;99.90;;;;;;5054458;28;20229;-62
2024/02/03 07:17:26;;;;;;;7.83;6.40;;;8.90;99.90;;;;;;5054662;28;20209;-62
2024/02/03 07:19:53;;;;;;;7.93;5.00;;;8.90;99.90;;;;;;5054399;28;20210;-62
2024/02/03 07:22:20;;;;;;;6.03;5.43;;;9.00;99.90;;;;;;5054287;28;20216;-63
2024/02/03 07:24:47;;;;;;;6.83;5.87;;;9.00;99.90;;;;;;5054052;28;20714;-63
2024/02/03 07:27:14;;;;;;;7.57;5.60;;;9.10;99.90;;;;;;5054227;28;20216;-62
2024/02/03 07:29:42;;;;;;;8.27;5.73;;;9.10;99.90;;;;;;5054760;28;20209;-62
2024/02/03 07:32:08;;;;;;;7.00;5.77;;;9.20;99.90;;;;;;5054662;28;20212;-62
2024/02/03 07:34:35;;;;;;;6.17;5.07;;;9.20;99.90;;;;;;5054118;28;20385;-62
2024/02/03 07:37:02;;;;;;;5.83;4.93;;;9.10;99.90;;;;;;5053875;28;20230;-63
2024/02/03 07:39:29;;;;;;;6.20;5.13;;;9.20;99.90;;;;;;5053901;28;20216;-63
2024/02/03 07:41:55;;;;;;;5.77;4.40;;;9.10;99.90;;;;;;5053798;28;20209;-63
2024/02/03 07:44:22;;;;;;;6.07;5.40;;;9.10;99.90;;;;;;5053509;28;20245;-62
2024/02/03 07:46:50;;;;;;;5.90;5.00;;;9.20;99.90;;;;;;5053794;28;20205;-62
2024/02/03 07:49:17;;;;;;;5.00;4.50;;;9.20;99.90;;;;;;5053554;28;20214;-62
2024/02/03 07:51:43;;;;;;;6.13;5.07;;;9.20;99.90;;;;;;5053579;28;20205;-63
2024/02/03 07:54:10;;;;;;;5.27;4.37;;;9.20;99.90;;;;;;5053552;28;20229;-62
2024/02/03 07:56:37;;;;;;;7.33;4.77;;;9.20;99.90;;;;;;5053529;28;20213;-62
2024/02/03 07:59:03;;;;;;;7.20;5.47;;;9.40;99.90;;;;;;5053434;28;20274;-63
2024/02/03 08:01:30;;;;;;;6.03;4.57;;;9.50;99.90;;;;;;5053260;28;20221;-63
2024/02/03 08:03:58;;;;;;;5.47;4.60;;;9.60;99.90;;;;;;5053493;28;20240;-63
2024/02/03 08:06:25;;;;;;;6.17;4.27;;;9.60;99.90;;;;;;5053434;28;20212;-65
2024/02/03 08:08:52;;;;;;;5.00;4.50;;;9.70;99.90;;;;;;5052961;28;20212;-63
2024/02/03 08:11:18;;;;;;;4.87;4.17;;;9.80;99.90;;;;;;5053357;28;20263;-64
2024/02/03 08:13:45;;;;;;;5.27;3.90;;;9.80;99.90;;;;;;5053355;28;20222;-64
2024/02/03 08:16:12;;;;;;;5.27;3.80;;;9.90;99.90;;;;;;5053253;28;20243;-65
2024/02/03 08:18:39;;;;;;;5.03;4.37;;;10.00;99.90;;;;;;5052928;28;20217;-64
2024/02/03 08:21:07;;;;;;;12.67;8.00;;;10.10;99.90;;;;;;5053065;28;20228;-64
2024/02/03 08:23:34;;;;;;;4.63;4.00;;;10.10;99.90;;;;;;5052905;28;20229;-64
2024/02/03 08:26:01;;;;;;;4.10;3.60;;;10.10;99.90;;;;;;5053121;28;20205;-64
2024/02/03 08:28:28;;;;;;;4.17;3.50;;;10.10;99.90;;;;;;5052834;28;20201;-64
2024/02/03 08:30:55;;;;;;;5.70;4.50;;;10.10;99.90;;;;;;5053156;28;20209;-62
2024/02/03 08:33:22;;;;;;;4.10;3.70;;;10.20;99.90;;;;;;5066043;28;20438;-60
2024/02/03 08:35:49;;;;;;;3.70;3.30;;;10.40;99.90;;;;;;5072679;28;20227;-64
2024/02/03 08:38:17;;;;;;;3.33;3.00;;;10.40;99.90;;;;;;5072328;28;20212;-64
2024/02/03 08:40:44;;;;;;;5.00;2.83;;;10.50;99.90;;;;;;5072418;28;20667;-63
2024/02/03 08:43:11;;;;;;;3.47;3.10;;;10.60;99.90;;;;;;5072320;28;20212;-63
2024/02/03 08:45:38;;;;;;;3.23;2.93;;;10.60;99.90;;;;;;5072583;28;20244;-62
2024/02/03 08:48:05;;;;;;;4.10;3.30;;;10.60;99.90;;;;;;5072720;28;20208;-63
2024/02/03 08:50:32;;;;;;;4.20;2.90;;;10.60;99.90;;;;;;5072226;28;20216;-64
2024/02/03 08:52:58;;;;;;;4.80;2.67;;;10.60;99.90;;;;;;5072303;28;20720;-64
2024/02/03 08:55:27;;;;;;;3.10;2.80;;;10.60;99.90;;;;;;5071980;28;20221;-63
2024/02/03 08:57:53;;;;;;;3.57;2.57;;;10.50;99.90;;;;;;5072007;28;20227;-63
2024/02/03 09:00:20;;;;;;;4.70;3.00;;;10.50;99.90;;;;;;5072319;28;20236;-65
2024/02/03 09:02:47;;;;;;;3.40;2.80;;;10.40;99.90;;;;;;5071976;28;20205;-64
2024/02/03 09:05:15;;;;;;;3.77;2.63;;;10.40;99.90;;;;;;5071745;28;20232;-64
2024/02/03 09:07:42;;;;;;;4.07;3.10;;;10.40;99.90;;;;;;5072007;28;20213;-65
2024/02/03 09:10:09;;;;;;;3.10;2.80;;;10.50;99.90;;;;;;5072315;28;20213;-64
2024/02/03 09:12:37;;;;;;;4.10;3.20;;;10.50;99.90;;;;;;5071453;28;20262;-64
2024/02/03 09:15:05;;;;;;;9.90;8.13;;;10.50;99.90;;;;;;5072164;28;20217;-63
2024/02/03 09:17:31;;;;;;;3.17;2.63;;;10.50;99.90;;;;;;5071927;28;20205;-65
2024/02/03 09:19:58;;;;;;;3.07;2.77;;;10.50;99.90;;;;;;5071660;28;20208;-63
2024/02/03 09:22:25;;;;;;;2.90;2.60;;;10.50;99.90;;;;;;5072218;28;20216;-64
2024/02/03 09:24:52;;;;;;;2.83;2.47;;;10.40;99.90;;;;;;5071787;28;20229;-64
2024/02/03 09:27:19;;;;;;;3.00;2.70;;;10.30;99.90;;;;;;5071858;28;20205;-66
2024/02/03 09:29:47;;;;;;;3.90;2.70;;;10.30;99.90;;;;;;5072378;28;20215;-64
2024/02/03 09:32:15;;;;;;;2.53;2.33;;;10.30;99.90;;;;;;5064850;28;20207;-64
2024/02/03 09:34:47;;;;;;;2.90;2.60;;;10.20;99.90;;;;;;5063627;28;20228;-63
2024/02/03 09:37:14;;;;;;;3.50;2.53;;;10.20;99.90;;;;;;5071861;28;20306;-63
2024/02/03 09:39:42;;;;;;;4.53;3.30;;;10.10;99.90;;;;;;5071916;28;20209;-63
2024/02/03 09:42:09;;;;;;;5.63;4.03;;;10.10;99.90;;;;;;5071892;28;20263;-62
2024/02/03 09:44:36;;;;;;;3.37;3.07;;;10.10;99.90;;;;;;5071523;28;20228;-63
2024/02/03 09:47:05;;;;;;;3.33;2.80;;;10.10;99.90;;;;;;5070857;28;20215;-65
2024/02/03 09:49:31;;;;;;;3.60;2.60;;;10.00;99.90;;;;;;5071986;28;20287;-61
2024/02/03 09:51:59;;;;;;;4.37;3.10;;;10.00;99.90;;;;;;5071853;28;20220;-63
2024/02/03 09:54:27;;;;;;;3.10;2.80;;;10.10;99.90;;;;;;5071681;28;20251;-62
2024/02/03 09:56:53;;;;;;;3.70;3.30;;;10.10;99.90;;;;;;5071434;28;20231;-63
2024/02/03 09:59:20;;;;;;;4.23;3.30;;;10.10;99.90;;;;;;5071231;28;20264;-61
2024/02/03 10:01:47;;;;;;;4.03;2.90;;;10.10;99.90;;;;;;5071663;28;20607;-62
2024/02/03 10:04:16;;;;;;;4.27;2.70;;;10.20;99.90;;;;;;5071563;28;20233;-62
2024/02/03 10:06:44;;;;;;;4.23;3.10;;;10.30;99.90;;;;;;5071777;28;20228;-62
2024/02/03 10:09:11;;;;;;;4.20;3.27;;;10.40;99.90;;;;;;5070993;28;20209;-63
2024/02/03 10:11:40;;;;;;;9.30;3.93;;;10.50;99.90;;;;;;5071914;28;20247;-62
2024/02/03 10:14:07;;;;;;;8.50;5.93;;;10.60;99.90;;;;;;5071036;28;20224;-62
2024/02/03 10:16:43;;;;;;;4.93;3.73;;;10.70;99.90;;;;;;5071660;28;20209;-62
2024/02/03 10:19:10;;;;;;;4.53;3.60;;;10.90;99.90;;;;;;5071479;28;20236;-62
2024/02/03 10:21:38;;;;;;;4.57;3.10;;;11.20;99.90;;;;;;5071309;28;20208;-61
2024/02/03 10:24:06;;;;;;;4.60;3.03;;;11.40;99.90;;;;;;5072724;28;20463;-61
2024/02/03 10:26:32;;;;;;;2.93;2.47;;;11.50;99.90;;;;;;5075250;28;20698;-61
2024/02/03 10:28:59;;;;;;;3.40;2.50;;;11.70;99.90;;;;;;5075418;28;20209;-61
2024/02/03 10:31:26;;;;;;;4.50;2.53;;;11.80;99.90;;;;;;5075735;28;20208;-62
2024/02/03 10:33:54;;;;;;;2.53;2.33;;;11.90;99.90;;;;;;5076211;28;20660;-60
2024/02/03 10:36:21;;;;;;;2.60;2.40;;;12.10;99.90;;;;;;5078864;28;20234;-65
2024/02/03 10:38:49;;;;;;;2.60;2.40;;;12.30;99.90;;;;;;5077671;28;20208;-65
2024/02/03 10:41:16;;;;;;;2.73;1.90;;;12.60;99.90;;;;;;5076958;28;20691;-64
2024/02/03 10:43:46;;;;;;;2.63;1.70;;;12.70;99.90;;;;;;5075462;28;20236;-63
2024/02/03 10:46:14;;;;;;;1.97;1.77;;;12.90;99.90;;;;;;5075057;28;20243;-65
2024/02/03 10:48:44;;;;;;;3.57;3.00;;;13.10;99.90;;;;;;5074892;28;20211;-64
2024/02/03 10:51:19;;;;;;;2.50;1.83;;;13.20;99.90;;;;;;5075411;28;20212;-64
2024/02/03 10:53:52;;;;;;;2.47;1.83;;;13.30;99.90;;;;;;5074836;28;20565;-64
2024/02/03 10:56:20;;;;;;;3.63;2.10;;;13.30;99.90;;;;;;5075623;28;20284;-65
2024/02/03 10:58:49;;;;;;;1.80;1.60;;;13.50;99.90;;;;;;5075955;28;20209;-62
2024/02/03 11:01:20;;;;;;;2.10;1.90;;;13.50;99.90;;;;;;5080656;28;20208;-64
2024/02/03 11:03:47;;;;;;;2.37;2.03;;;13.60;99.90;;;;;;5078509;28;20710;-65
2024/02/03 11:06:24;;;;;;;1.90;1.70;;;13.70;99.90;;;;;;5074789;28;20232;-65
2024/02/03 11:08:52;;;;;;;4.83;3.00;;;13.70;99.90;;;;;;5074764;28;20243;-63
2024/02/03 11:11:25;;;;;;;2.10;1.90;;;13.80;99.90;;;;;;5074959;28;20205;-61
2024/02/03 11:13:53;;;;;;;1.97;1.70;;;13.70;99.90;;;;;;5074191;28;20225;-62
2024/02/03 11:16:20;;;;;;;1.93;1.70;;;13.60;99.90;;;;;;5074500;28;20258;-65
2024/02/03 11:18:50;;;;;;;1.90;1.70;;;13.50;99.90;;;;;;5074024;28;20205;-64
2024/02/03 11:21:17;;;;;;;2.77;1.50;;;13.30;99.90;;;;;;5074535;28;20247;-64
2024/02/03 11:23:44;;;;;;;2.27;1.90;;;13.20;99.90;;;;;;5074861;28;20298;-65
2024/02/03 11:26:12;;;;;;;2.57;1.90;;;13.00;99.90;;;;;;5074564;28;20264;-65
2024/02/03 11:28:39;;;;;;;5.40;2.97;;;12.90;99.90;;;;;;5074474;28;20209;-66
2024/02/03 11:31:05;;;;;;;3.70;2.20;;;13.00;99.90;;;;;;5074196;28;20216;-65
2024/02/03 11:33:42;;;;;;;2.30;1.97;;;13.00;99.90;;;;;;5073979;28;20247;-65
2024/02/03 11:36:10;;;;;;;2.53;2.20;;;12.80;99.90;;;;;;5073558;28;20680;-63
2024/02/03 11:38:44;;;;;;;2.40;2.20;;;12.80;99.90;;;;;;5074180;28;20662;-64
2024/02/03 11:41:12;;;;;;;4.27;1.80;;;12.80;99.90;;;;;;5074138;28;20651;-65
2024/02/03 11:43:39;;;;;;;1.83;1.70;;;12.90;99.90;;;;;;5073739;28;20240;-64
2024/02/03 11:46:07;;;;;;;6.17;2.73;;;12.90;99.90;;;;;;5074137;28;20701;-64
2024/02/03 11:48:35;;;;;;;2.53;2.33;;;13.00;99.90;;;;;;5074043;28;20232;-64
2024/02/03 11:51:03;;;;;;;2.20;1.73;;;13.10;99.90;;;;;;5073866;28;20250;-65
2024/02/03 11:53:29;;;;;;;1.70;1.53;;;13.20;99.90;;;;;;5073316;28;20229;-65
2024/02/03 11:55:56;;;;;;;1.80;1.70;;;13.30;99.90;;;;;;5073596;28;20565;-65
2024/02/03 11:58:24;;;;;;;2.03;1.70;;;13.30;99.90;;;;;;5072746;28;20686;-65
2024/02/03 12:01:01;;;;;;;1.33;1.23;;;13.30;99.90;;;;;;5073824;28;20220;-65
2024/02/03 12:03:28;;;;;;;2.13;1.10;;;13.30;99.90;;;;;;5073374;28;20646;-64
2024/02/03 12:05:55;;;;;;;2.03;1.00;;;13.30;99.90;;;;;;5073308;28;20244;-64
2024/02/03 12:08:22;;;;;;;0.77;0.73;;;13.30;99.90;;;;;;5073554;28;20201;-64
2024/02/03 12:10:49;;;;;;;0.83;0.63;;;13.20;99.90;;;;;;5073115;28;20216;-65
2024/02/03 12:13:16;;;;;;;0.73;0.70;;;13.10;99.90;;;;;;5073402;28;20627;-64
2024/02/03 12:15:45;;;;;;;1.40;0.80;;;13.10;99.90;;;;;;5073413;28;20224;-64
2024/02/03 12:18:11;;;;;;;1.50;1.10;;;13.00;99.90;;;;;;5073428;28;20576;-65
2024/02/03 12:20:39;;;;;;;2.07;1.03;;;13.00;99.90;;;;;;5073281;28;20213;-64
2024/02/03 12:23:05;;;;;;;0.30;0.30;;;12.90;99.90;;;;;;5072552;28;20709;-63
2024/02/03 12:25:32;;;;;;;1.63;0.70;;;12.80;99.90;;;;;;5073472;28;20229;-67
2024/02/03 12:28:00;;;;;;;4.40;2.27;;;12.80;99.90;;;;;;5073332;28;20280;-65
2024/02/03 12:30:30;;;;;;;1.13;0.80;;;12.70;99.90;;;;;;5073345;28;20674;-63
2024/02/03 12:32:58;;;;;;;0.70;0.43;;;12.80;99.90;;;;;;5073254;28;20589;-64
2024/02/03 12:35:25;;;;;;;0.73;0.50;;;12.70;99.90;;;;;;5073429;28;20752;-64
2024/02/03 12:37:52;;;;;;;0.27;0.27;;;12.60;99.90;;;;;;5072920;28;20215;-62
2024/02/03 12:40:19;;;;;;;0.53;0.40;;;12.60;99.90;;;;;;5073019;28;20205;-65
2024/02/03 12:42:46;;;;;;;0.63;0.30;;;12.60;99.90;;;;;;5073197;28;20221;-64
2024/02/03 12:45:13;;;;;;;0.40;0.30;;;12.70;99.90;;;;;;5072820;28;20233;-62
2024/02/03 12:47:41;;;;;;;0.40;0.40;;;12.90;99.90;;;;;;5064711;28;20220;-62
2024/02/03 12:50:10;;;;;;;0.43;0.40;;;12.90;99.90;;;;;;5067009;28;20674;-64
2024/02/03 12:52:37;;;;;;;0.47;0.30;;;12.90;99.90;;;;;;5070800;28;20212;-62